sensor_id;sensor_type;location;lat;lon;timestamp;P1;durP1;ratioP1;P2;durP2;ratioP2
42118;SDS011;27783;42.782;23.274;2023-02-12T00:00:34;37.40;;;20.17;;
42118;SDS011;27783;42.782;23.274;2023-02-12T00:03:02;33.70;;;17.80;;
42118;SDS011;27783;42.782;23.274;2023-02-12T00:05:27;30.80;;;19.83;;
42118;SDS011;27783;42.782;23.274;2023-02-12T00:07:56;28.85;;;18.90;;
42118;SDS011;27783;42.782;23.274;2023-02-12T00:10:21;36.92;;;20.55;;
42118;SDS011;27783;42.782;23.274;2023-02-12T00:12:55;30.27;;;19.10;;
42118;SDS011;27783;42.782;23.274;2023-02-12T00:15:20;34.13;;;20.35;;
42118;SDS011;27783;42.782;23.274;2023-02-12T00:17:46;35.58;;;18.73;;
42118;SDS011;27783;42.782;23.274;2023-02-12T00:20:12;34.20;;;21.15;;
42118;SDS011;27783;42.782;23.274;2023-02-12T00:22:37;38.90;;;21.95;;
42118;SDS011;27783;42.782;23.274;2023-02-12T00:25:04;37.38;;;21.42;;
42118;SDS011;27783;42.782;23.274;2023-02-12T00:27:50;44.33;;;22.98;;
42118;SDS011;27783;42.782;23.274;2023-02-12T00:30:16;36.78;;;19.75;;
42118;SDS011;27783;42.782;23.274;2023-02-12T00:32:41;27.83;;;20.77;;
42118;SDS011;27783;42.782;23.274;2023-02-12T00:35:09;29.95;;;18.02;;
42118;SDS011;27783;42.782;23.274;2023-02-12T00:37:34;38.55;;;23.77;;
42118;SDS011;27783;42.782;23.274;2023-02-12T00:40:00;33.55;;;21.05;;
42118;SDS011;27783;42.782;23.274;2023-02-12T00:42:29;34.30;;;21.67;;
42118;SDS011;27783;42.782;23.274;2023-02-12T00:44:56;115.25;;;59.53;;
42118;SDS011;27783;42.782;23.274;2023-02-12T00:47:23;32.05;;;19.45;;
42118;SDS011;27783;42.782;23.274;2023-02-12T00:49:52;40.28;;;22.77;;
42118;SDS011;27783;42.782;23.274;2023-02-12T00:52:18;42.20;;;25.20;;
42118;SDS011;27783;42.782;23.274;2023-02-12T00:54:44;75.57;;;38.63;;
42118;SDS011;27783;42.782;23.274;2023-02-12T00:57:11;42.30;;;25.13;;
42118;SDS011;27783;42.782;23.274;2023-02-12T00:59:38;51.72;;;26.20;;
42118;SDS011;27783;42.782;23.274;2023-02-12T01:02:07;42.65;;;24.98;;
42118;SDS011;27783;42.782;23.274;2023-02-12T01:04:38;41.25;;;24.50;;
42118;SDS011;27783;42.782;23.274;2023-02-12T01:07:03;36.42;;;21.80;;
42118;SDS011;27783;42.782;23.274;2023-02-12T01:09:30;41.00;;;23.17;;
42118;SDS011;27783;42.782;23.274;2023-02-12T01:11:58;38.45;;;22.45;;
42118;SDS011;27783;42.782;23.274;2023-02-12T01:14:23;41.17;;;24.48;;
42118;SDS011;27783;42.782;23.274;2023-02-12T01:16:51;43.80;;;23.88;;
42118;SDS011;27783;42.782;23.274;2023-02-12T01:19:19;35.77;;;21.47;;
42118;SDS011;27783;42.782;23.274;2023-02-12T01:21:45;37.33;;;22.80;;
42118;SDS011;27783;42.782;23.274;2023-02-12T01:24:11;38.72;;;22.80;;
42118;SDS011;27783;42.782;23.274;2023-02-12T01:26:37;42.55;;;22.27;;
42118;SDS011;27783;42.782;23.274;2023-02-12T01:29:05;46.67;;;25.52;;
42118;SDS011;27783;42.782;23.274;2023-02-12T01:31:32;41.65;;;22.63;;
42118;SDS011;27783;42.782;23.274;2023-02-12T01:34:01;42.25;;;22.27;;
42118;SDS011;27783;42.782;23.274;2023-02-12T01:36:28;32.80;;;21.38;;
42118;SDS011;27783;42.782;23.274;2023-02-12T01:38:56;36.03;;;21.90;;
42118;SDS011;27783;42.782;23.274;2023-02-12T01:41:25;33.63;;;21.00;;
42118;SDS011;27783;42.782;23.274;2023-02-12T01:46:59;25.75;;;17.27;;
42118;SDS011;27783;42.782;23.274;2023-02-12T01:49:35;28.55;;;18.88;;
42118;SDS011;27783;42.782;23.274;2023-02-12T01:52:13;28.33;;;18.48;;
42118;SDS011;27783;42.782;23.274;2023-02-12T01:54:44;29.30;;;21.25;;
42118;SDS011;27783;42.782;23.274;2023-02-12T01:57:13;36.72;;;22.83;;
42118;SDS011;27783;42.782;23.274;2023-02-12T01:59:42;29.85;;;19.35;;
42118;SDS011;27783;42.782;23.274;2023-02-12T02:02:09;31.85;;;20.17;;
42118;SDS011;27783;42.782;23.274;2023-02-12T02:04:39;26.42;;;18.67;;
42118;SDS011;27783;42.782;23.274;2023-02-12T02:07:09;30.85;;;18.50;;
42118;SDS011;27783;42.782;23.274;2023-02-12T02:09:36;30.00;;;19.63;;
42118;SDS011;27783;42.782;23.274;2023-02-12T02:12:03;31.67;;;19.15;;
42118;SDS011;27783;42.782;23.274;2023-02-12T02:14:48;30.50;;;18.35;;
42118;SDS011;27783;42.782;23.274;2023-02-12T02:33:34;31.25;;;19.92;;
42118;SDS011;27783;42.782;23.274;2023-02-12T02:36:40;33.13;;;21.00;;
42118;SDS011;27783;42.782;23.274;2023-02-12T02:42:00;32.60;;;19.35;;
42118;SDS011;27783;42.782;23.274;2023-02-12T02:44:44;30.75;;;20.02;;
42118;SDS011;27783;42.782;23.274;2023-02-12T02:47:16;40.88;;;22.60;;
42118;SDS011;27783;42.782;23.274;2023-02-12T02:49:53;43.97;;;23.73;;
42118;SDS011;27783;42.782;23.274;2023-02-12T02:52:46;46.67;;;26.45;;
42118;SDS011;27783;42.782;23.274;2023-02-12T02:55:32;35.45;;;19.92;;
42118;SDS011;27783;42.782;23.274;2023-02-12T02:58:13;33.47;;;22.58;;
42118;SDS011;27783;42.782;23.274;2023-02-12T03:03:37;37.30;;;21.17;;
42118;SDS011;27783;42.782;23.274;2023-02-12T03:06:07;36.28;;;21.45;;
42118;SDS011;27783;42.782;23.274;2023-02-12T03:08:37;39.13;;;23.80;;
42118;SDS011;27783;42.782;23.274;2023-02-12T03:11:15;38.05;;;23.00;;
42118;SDS011;27783;42.782;23.274;2023-02-12T03:13:54;34.53;;;21.05;;
42118;SDS011;27783;42.782;23.274;2023-02-12T03:16:58;34.20;;;21.23;;
42118;SDS011;27783;42.782;23.274;2023-02-12T03:19:30;38.70;;;22.95;;
42118;SDS011;27783;42.782;23.274;2023-02-12T03:22:13;29.27;;;21.08;;
42118;SDS011;27783;42.782;23.274;2023-02-12T03:24:47;36.47;;;22.38;;
42118;SDS011;27783;42.782;23.274;2023-02-12T03:29:46;32.05;;;22.67;;
42118;SDS011;27783;42.782;23.274;2023-02-12T03:40:34;30.52;;;20.92;;
42118;SDS011;27783;42.782;23.274;2023-02-12T03:46:03;36.47;;;20.92;;
42118;SDS011;27783;42.782;23.274;2023-02-12T03:48:49;35.35;;;21.35;;
42118;SDS011;27783;42.782;23.274;2023-02-12T03:51:35;34.47;;;22.77;;
42118;SDS011;27783;42.782;23.274;2023-02-12T03:54:07;33.63;;;22.35;;
42118;SDS011;27783;42.782;23.274;2023-02-12T03:59:13;34.10;;;21.52;;
42118;SDS011;27783;42.782;23.274;2023-02-12T04:01:38;35.47;;;22.73;;
42118;SDS011;27783;42.782;23.274;2023-02-12T04:04:06;36.58;;;23.13;;
42118;SDS011;27783;42.782;23.274;2023-02-12T04:06:33;38.22;;;24.00;;
42118;SDS011;27783;42.782;23.274;2023-02-12T04:09:12;38.90;;;22.88;;
42118;SDS011;27783;42.782;23.274;2023-02-12T04:17:25;38.03;;;22.38;;
42118;SDS011;27783;42.782;23.274;2023-02-12T04:20:37;30.27;;;21.30;;
42118;SDS011;27783;42.782;23.274;2023-02-12T04:37:06;55.28;;;31.17;;
42118;SDS011;27783;42.782;23.274;2023-02-12T04:39:44;55.42;;;31.02;;
42118;SDS011;27783;42.782;23.274;2023-02-12T04:42:12;50.80;;;31.33;;
42118;SDS011;27783;42.782;23.274;2023-02-12T04:44:43;37.28;;;24.55;;
42118;SDS011;27783;42.782;23.274;2023-02-12T04:47:16;46.83;;;28.98;;
42118;SDS011;27783;42.782;23.274;2023-02-12T04:49:43;33.80;;;22.92;;
42118;SDS011;27783;42.782;23.274;2023-02-12T04:52:08;37.30;;;21.88;;
42118;SDS011;27783;42.782;23.274;2023-02-12T04:54:34;33.00;;;21.50;;
42118;SDS011;27783;42.782;23.274;2023-02-12T04:57:01;34.05;;;21.67;;
42118;SDS011;27783;42.782;23.274;2023-02-12T04:59:28;31.90;;;21.63;;
42118;SDS011;27783;42.782;23.274;2023-02-12T05:01:55;32.40;;;21.23;;
42118;SDS011;27783;42.782;23.274;2023-02-12T05:04:31;29.77;;;20.90;;
42118;SDS011;27783;42.782;23.274;2023-02-12T05:06:56;32.35;;;21.83;;
42118;SDS011;27783;42.782;23.274;2023-02-12T05:09:23;32.50;;;21.77;;
42118;SDS011;27783;42.782;23.274;2023-02-12T05:11:50;34.80;;;21.38;;
42118;SDS011;27783;42.782;23.274;2023-02-12T05:14:17;34.72;;;22.15;;
42118;SDS011;27783;42.782;23.274;2023-02-12T05:16:44;34.45;;;21.55;;
42118;SDS011;27783;42.782;23.274;2023-02-12T05:22:13;34.65;;;22.65;;
42118;SDS011;27783;42.782;23.274;2023-02-12T05:24:39;33.72;;;20.65;;
42118;SDS011;27783;42.782;23.274;2023-02-12T05:27:05;28.15;;;20.15;;
42118;SDS011;27783;42.782;23.274;2023-02-12T05:29:35;29.60;;;20.10;;
42118;SDS011;27783;42.782;23.274;2023-02-12T05:32:02;29.92;;;20.08;;
42118;SDS011;27783;42.782;23.274;2023-02-12T05:34:42;28.42;;;20.52;;
42118;SDS011;27783;42.782;23.274;2023-02-12T05:37:09;31.05;;;20.17;;
42118;SDS011;27783;42.782;23.274;2023-02-12T05:39:37;36.08;;;22.63;;
42118;SDS011;27783;42.782;23.274;2023-02-12T05:42:09;29.30;;;19.98;;
42118;SDS011;27783;42.782;23.274;2023-02-12T05:44:36;28.35;;;19.63;;
42118;SDS011;27783;42.782;23.274;2023-02-12T05:47:03;33.28;;;21.33;;
42118;SDS011;27783;42.782;23.274;2023-02-12T05:49:31;27.50;;;19.42;;
42118;SDS011;27783;42.782;23.274;2023-02-12T05:51:56;31.92;;;19.02;;
42118;SDS011;27783;42.782;23.274;2023-02-12T05:54:26;32.65;;;19.90;;
42118;SDS011;27783;42.782;23.274;2023-02-12T05:56:58;33.92;;;21.33;;
42118;SDS011;27783;42.782;23.274;2023-02-12T05:59:32;27.60;;;20.42;;
42118;SDS011;27783;42.782;23.274;2023-02-12T06:01:58;35.22;;;21.13;;
42118;SDS011;27783;42.782;23.274;2023-02-12T06:04:25;37.72;;;25.50;;
42118;SDS011;27783;42.782;23.274;2023-02-12T06:06:53;38.55;;;24.83;;
42118;SDS011;27783;42.782;23.274;2023-02-12T06:09:22;39.35;;;23.77;;
42118;SDS011;27783;42.782;23.274;2023-02-12T06:11:48;36.63;;;24.58;;
42118;SDS011;27783;42.782;23.274;2023-02-12T06:14:15;35.15;;;24.13;;
42118;SDS011;27783;42.782;23.274;2023-02-12T06:16:49;31.92;;;23.38;;
42118;SDS011;27783;42.782;23.274;2023-02-12T06:19:17;37.05;;;25.13;;
42118;SDS011;27783;42.782;23.274;2023-02-12T06:21:45;43.55;;;29.23;;
42118;SDS011;27783;42.782;23.274;2023-02-12T06:24:11;40.60;;;27.70;;
42118;SDS011;27783;42.782;23.274;2023-02-12T06:26:39;45.10;;;29.33;;
42118;SDS011;27783;42.782;23.274;2023-02-12T06:32:08;41.28;;;28.50;;
42118;SDS011;27783;42.782;23.274;2023-02-12T06:34:38;42.80;;;28.33;;
42118;SDS011;27783;42.782;23.274;2023-02-12T06:37:10;44.42;;;29.05;;
42118;SDS011;27783;42.782;23.274;2023-02-12T06:42:06;37.75;;;26.50;;
42118;SDS011;27783;42.782;23.274;2023-02-12T06:44:32;43.95;;;29.83;;
42118;SDS011;27783;42.782;23.274;2023-02-12T06:46:57;42.35;;;28.40;;
42118;SDS011;27783;42.782;23.274;2023-02-12T06:49:23;45.97;;;30.10;;
42118;SDS011;27783;42.782;23.274;2023-02-12T06:51:50;44.40;;;29.27;;
42118;SDS011;27783;42.782;23.274;2023-02-12T06:54:16;49.85;;;31.48;;
42118;SDS011;27783;42.782;23.274;2023-02-12T06:56:43;42.92;;;29.02;;
42118;SDS011;27783;42.782;23.274;2023-02-12T06:59:29;44.42;;;30.00;;
42118;SDS011;27783;42.782;23.274;2023-02-12T07:01:54;40.30;;;27.75;;
42118;SDS011;27783;42.782;23.274;2023-02-12T07:04:20;34.28;;;25.05;;
42118;SDS011;27783;42.782;23.274;2023-02-12T07:06:46;35.83;;;24.67;;
42118;SDS011;27783;42.782;23.274;2023-02-12T07:09:11;40.75;;;28.60;;
42118;SDS011;27783;42.782;23.274;2023-02-12T07:14:11;47.10;;;32.88;;
42118;SDS011;27783;42.782;23.274;2023-02-12T07:16:45;45.28;;;32.65;;
42118;SDS011;27783;42.782;23.274;2023-02-12T07:19:12;52.78;;;33.22;;
42118;SDS011;27783;42.782;23.274;2023-02-12T07:21:38;40.60;;;27.43;;
42118;SDS011;27783;42.782;23.274;2023-02-12T07:24:04;35.80;;;24.77;;
42118;SDS011;27783;42.782;23.274;2023-02-12T07:26:32;33.00;;;22.95;;
42118;SDS011;27783;42.782;23.274;2023-02-12T07:29:23;33.80;;;24.60;;
42118;SDS011;27783;42.782;23.274;2023-02-12T07:31:49;32.83;;;21.88;;
42118;SDS011;27783;42.782;23.274;2023-02-12T07:34:15;36.58;;;24.02;;
42118;SDS011;27783;42.782;23.274;2023-02-12T07:36:41;34.75;;;22.92;;
42118;SDS011;27783;42.782;23.274;2023-02-12T07:39:09;39.33;;;26.45;;
42118;SDS011;27783;42.782;23.274;2023-02-12T07:41:35;30.73;;;22.55;;
42118;SDS011;27783;42.782;23.274;2023-02-12T07:44:05;46.08;;;29.08;;
42118;SDS011;27783;42.782;23.274;2023-02-12T07:46:36;54.47;;;31.35;;
42118;SDS011;27783;42.782;23.274;2023-02-12T07:49:03;44.67;;;27.55;;
42118;SDS011;27783;42.782;23.274;2023-02-12T07:51:35;49.43;;;32.50;;
42118;SDS011;27783;42.782;23.274;2023-02-12T07:54:12;50.22;;;33.15;;
42118;SDS011;27783;42.782;23.274;2023-02-12T07:56:39;39.15;;;28.52;;
42118;SDS011;27783;42.782;23.274;2023-02-12T07:59:08;40.75;;;27.38;;
42118;SDS011;27783;42.782;23.274;2023-02-12T08:01:38;38.10;;;26.50;;
42118;SDS011;27783;42.782;23.274;2023-02-12T08:04:07;36.92;;;28.13;;
42118;SDS011;27783;42.782;23.274;2023-02-12T08:06:36;46.00;;;31.33;;
42118;SDS011;27783;42.782;23.274;2023-02-12T08:09:12;33.77;;;25.07;;
42118;SDS011;27783;42.782;23.274;2023-02-12T08:11:41;38.72;;;28.23;;
42118;SDS011;27783;42.782;23.274;2023-02-12T08:14:07;38.92;;;27.55;;
42118;SDS011;27783;42.782;23.274;2023-02-12T08:19:10;39.55;;;27.25;;
42118;SDS011;27783;42.782;23.274;2023-02-12T08:21:37;38.25;;;28.83;;
42118;SDS011;27783;42.782;23.274;2023-02-12T08:24:04;40.42;;;26.45;;
42118;SDS011;27783;42.782;23.274;2023-02-12T08:26:43;35.78;;;24.38;;
42118;SDS011;27783;42.782;23.274;2023-02-12T08:29:33;40.60;;;27.30;;
42118;SDS011;27783;42.782;23.274;2023-02-12T08:32:01;38.70;;;25.50;;
42118;SDS011;27783;42.782;23.274;2023-02-12T08:34:33;37.47;;;25.00;;
42118;SDS011;27783;42.782;23.274;2023-02-12T08:37:00;32.25;;;25.38;;
42118;SDS011;27783;42.782;23.274;2023-02-12T08:39:29;35.30;;;23.35;;
42118;SDS011;27783;42.782;23.274;2023-02-12T08:41:56;38.07;;;27.30;;
42118;SDS011;27783;42.782;23.274;2023-02-12T08:44:23;38.95;;;27.33;;
42118;SDS011;27783;42.782;23.274;2023-02-12T08:46:49;38.50;;;29.13;;
42118;SDS011;27783;42.782;23.274;2023-02-12T08:49:19;36.03;;;27.70;;
42118;SDS011;27783;42.782;23.274;2023-02-12T08:51:47;36.15;;;25.63;;
42118;SDS011;27783;42.782;23.274;2023-02-12T08:56:45;40.45;;;27.90;;
42118;SDS011;27783;42.782;23.274;2023-02-12T08:59:29;44.50;;;30.88;;
42118;SDS011;27783;42.782;23.274;2023-02-12T09:01:56;45.25;;;33.00;;
42118;SDS011;27783;42.782;23.274;2023-02-12T09:04:25;89.35;;;48.10;;
42118;SDS011;27783;42.782;23.274;2023-02-12T09:06:52;88.03;;;47.42;;
42118;SDS011;27783;42.782;23.274;2023-02-12T09:11:51;99.68;;;51.22;;
42118;SDS011;27783;42.782;23.274;2023-02-12T09:14:17;72.05;;;39.90;;
42118;SDS011;27783;42.782;23.274;2023-02-12T09:16:49;59.33;;;34.67;;
42118;SDS011;27783;42.782;23.274;2023-02-12T09:19:19;50.42;;;34.90;;
42118;SDS011;27783;42.782;23.274;2023-02-12T09:21:49;55.83;;;33.28;;
42118;SDS011;27783;42.782;23.274;2023-02-12T09:24:19;53.60;;;33.28;;
42118;SDS011;27783;42.782;23.274;2023-02-12T09:29:31;56.42;;;37.15;;
42118;SDS011;27783;42.782;23.274;2023-02-12T09:32:13;46.92;;;32.10;;
42118;SDS011;27783;42.782;23.274;2023-02-12T09:34:38;49.47;;;31.38;;
42118;SDS011;27783;42.782;23.274;2023-02-12T09:37:10;49.33;;;32.63;;
42118;SDS011;27783;42.782;23.274;2023-02-12T09:39:36;40.65;;;29.52;;
42118;SDS011;27783;42.782;23.274;2023-02-12T09:44:45;51.10;;;34.10;;
42118;SDS011;27783;42.782;23.274;2023-02-12T09:47:32;63.85;;;39.67;;
42118;SDS011;27783;42.782;23.274;2023-02-12T09:52:53;56.15;;;34.17;;
42118;SDS011;27783;42.782;23.274;2023-02-12T09:55:32;47.22;;;31.25;;
42118;SDS011;27783;42.782;23.274;2023-02-12T09:58:01;35.22;;;25.13;;
42118;SDS011;27783;42.782;23.274;2023-02-12T10:00:31;41.92;;;31.15;;
42118;SDS011;27783;42.782;23.274;2023-02-12T10:03:00;40.40;;;28.02;;
42118;SDS011;27783;42.782;23.274;2023-02-12T10:05:31;36.00;;;27.13;;
42118;SDS011;27783;42.782;23.274;2023-02-12T10:08:07;33.92;;;24.80;;
42118;SDS011;27783;42.782;23.274;2023-02-12T10:16:35;36.67;;;26.00;;
42118;SDS011;27783;42.782;23.274;2023-02-12T10:22:18;40.67;;;26.65;;
42118;SDS011;27783;42.782;23.274;2023-02-12T10:27:46;36.60;;;27.30;;
42118;SDS011;27783;42.782;23.274;2023-02-12T10:33:06;44.30;;;29.67;;
42118;SDS011;27783;42.782;23.274;2023-02-12T10:35:35;47.33;;;29.13;;
42118;SDS011;27783;42.782;23.274;2023-02-12T10:38:28;40.13;;;28.42;;
42118;SDS011;27783;42.782;23.274;2023-02-12T10:40:57;38.67;;;27.48;;
42118;SDS011;27783;42.782;23.274;2023-02-12T10:43:27;37.15;;;27.52;;
42118;SDS011;27783;42.782;23.274;2023-02-12T10:45:53;34.28;;;27.00;;
42118;SDS011;27783;42.782;23.274;2023-02-12T10:48:26;38.60;;;27.15;;
42118;SDS011;27783;42.782;23.274;2023-02-12T10:53:32;36.40;;;26.67;;
42118;SDS011;27783;42.782;23.274;2023-02-12T10:58:52;54.80;;;35.20;;
42118;SDS011;27783;42.782;23.274;2023-02-12T11:01:34;39.35;;;28.38;;
42118;SDS011;27783;42.782;23.274;2023-02-12T11:06:59;33.97;;;26.58;;
42118;SDS011;27783;42.782;23.274;2023-02-12T11:12:16;38.55;;;27.35;;
42118;SDS011;27783;42.782;23.274;2023-02-12T11:14:54;37.58;;;28.95;;
42118;SDS011;27783;42.782;23.274;2023-02-12T11:17:38;35.42;;;28.75;;
42118;SDS011;27783;42.782;23.274;2023-02-12T11:25:29;31.92;;;28.33;;
42118;SDS011;27783;42.782;23.274;2023-02-12T11:33:37;41.10;;;30.63;;
42118;SDS011;27783;42.782;23.274;2023-02-12T11:38:53;45.30;;;31.30;;
42118;SDS011;27783;42.782;23.274;2023-02-12T11:41:33;35.90;;;30.17;;
42118;SDS011;27783;42.782;23.274;2023-02-12T11:47:16;37.47;;;29.27;;
42118;SDS011;27783;42.782;23.274;2023-02-12T11:49:55;35.55;;;28.92;;
42118;SDS011;27783;42.782;23.274;2023-02-12T11:52:29;38.58;;;30.58;;
42118;SDS011;27783;42.782;23.274;2023-02-12T11:55:03;33.35;;;29.80;;
42118;SDS011;27783;42.782;23.274;2023-02-12T11:57:52;31.05;;;25.67;;
42118;SDS011;27783;42.782;23.274;2023-02-12T12:05:49;74.55;;;60.60;;
42118;SDS011;27783;42.782;23.274;2023-02-12T12:08:28;38.97;;;29.73;;
42118;SDS011;27783;42.782;23.274;2023-02-12T12:11:40;46.78;;;35.33;;
42118;SDS011;27783;42.782;23.274;2023-02-12T12:14:29;43.97;;;32.53;;
42118;SDS011;27783;42.782;23.274;2023-02-12T12:17:23;34.22;;;29.17;;
42118;SDS011;27783;42.782;23.274;2023-02-12T12:20:11;38.33;;;30.02;;
42118;SDS011;27783;42.782;23.274;2023-02-12T12:23:36;41.35;;;30.15;;
42118;SDS011;27783;42.782;23.274;2023-02-12T12:26:32;31.60;;;25.95;;
42118;SDS011;27783;42.782;23.274;2023-02-12T12:31:52;35.50;;;29.65;;
42118;SDS011;27783;42.782;23.274;2023-02-12T12:34:23;39.40;;;31.75;;
42118;SDS011;27783;42.782;23.274;2023-02-12T12:45:33;37.53;;;30.17;;
42118;SDS011;27783;42.782;23.274;2023-02-12T13:08:51;40.33;;;34.45;;
42118;SDS011;27783;42.782;23.274;2023-02-12T13:12:04;49.28;;;40.35;;
42118;SDS011;27783;42.782;23.274;2023-02-12T13:14:51;42.97;;;34.40;;
42118;SDS011;27783;42.782;23.274;2023-02-12T13:17:23;42.95;;;33.78;;
42118;SDS011;27783;42.782;23.274;2023-02-12T13:23:21;44.05;;;34.10;;
42118;SDS011;27783;42.782;23.274;2023-02-12T13:28:54;37.72;;;31.85;;
42118;SDS011;27783;42.782;23.274;2023-02-12T13:32:04;43.22;;;32.08;;
42118;SDS011;27783;42.782;23.274;2023-02-12T13:34:52;40.75;;;32.17;;
42118;SDS011;27783;42.782;23.274;2023-02-12T13:40:20;44.45;;;33.30;;
42118;SDS011;27783;42.782;23.274;2023-02-12T13:42:54;41.45;;;31.95;;
42118;SDS011;27783;42.782;23.274;2023-02-12T13:51:59;45.15;;;34.30;;
42118;SDS011;27783;42.782;23.274;2023-02-12T13:57:19;34.13;;;29.30;;
42118;SDS011;27783;42.782;23.274;2023-02-12T13:59:51;51.63;;;35.10;;
42118;SDS011;27783;42.782;23.274;2023-02-12T14:02:23;42.08;;;33.50;;
42118;SDS011;27783;42.782;23.274;2023-02-12T14:08:02;52.83;;;38.63;;
42118;SDS011;27783;42.782;23.274;2023-02-12T14:10:35;52.28;;;38.15;;
42118;SDS011;27783;42.782;23.274;2023-02-12T14:15:56;51.50;;;38.33;;
42118;SDS011;27783;42.782;23.274;2023-02-12T14:18:34;52.85;;;36.80;;
42118;SDS011;27783;42.782;23.274;2023-02-12T14:21:40;49.38;;;36.25;;
42118;SDS011;27783;42.782;23.274;2023-02-12T14:27:56;57.78;;;41.15;;
42118;SDS011;27783;42.782;23.274;2023-02-12T14:30:47;64.60;;;51.85;;
42118;SDS011;27783;42.782;23.274;2023-02-12T14:33:17;144.85;;;109.45;;
42118;SDS011;27783;42.782;23.274;2023-02-12T14:35:47;61.78;;;44.42;;
42118;SDS011;27783;42.782;23.274;2023-02-12T14:41:31;49.83;;;39.50;;
42118;SDS011;27783;42.782;23.274;2023-02-12T14:49:54;78.88;;;54.30;;
42118;SDS011;27783;42.782;23.274;2023-02-12T14:52:26;88.28;;;63.03;;
42118;SDS011;27783;42.782;23.274;2023-02-12T14:55:02;68.50;;;47.88;;
42118;SDS011;27783;42.782;23.274;2023-02-12T14:57:34;72.22;;;51.80;;
42118;SDS011;27783;42.782;23.274;2023-02-12T15:14:21;62.42;;;43.58;;
42118;SDS011;27783;42.782;23.274;2023-02-12T15:17:01;58.75;;;41.60;;
42118;SDS011;27783;42.782;23.274;2023-02-12T15:19:45;54.10;;;38.22;;
42118;SDS011;27783;42.782;23.274;2023-02-12T15:24:46;63.15;;;43.38;;
42118;SDS011;27783;42.782;23.274;2023-02-12T15:27:12;61.90;;;42.20;;
42118;SDS011;27783;42.782;23.274;2023-02-12T15:29:49;71.85;;;52.90;;
42118;SDS011;27783;42.782;23.274;2023-02-12T15:32:26;65.47;;;45.63;;
42118;SDS011;27783;42.782;23.274;2023-02-12T15:34:53;59.08;;;42.63;;
42118;SDS011;27783;42.782;23.274;2023-02-12T15:37:27;58.28;;;39.70;;
42118;SDS011;27783;42.782;23.274;2023-02-12T15:39:56;64.45;;;43.67;;
42118;SDS011;27783;42.782;23.274;2023-02-12T15:42:34;69.60;;;48.40;;
42118;SDS011;27783;42.782;23.274;2023-02-12T15:47:38;70.15;;;47.35;;
42118;SDS011;27783;42.782;23.274;2023-02-12T15:50:06;65.13;;;44.50;;
42118;SDS011;27783;42.782;23.274;2023-02-12T15:52:40;69.55;;;45.58;;
42118;SDS011;27783;42.782;23.274;2023-02-12T15:55:17;75.32;;;47.28;;
42118;SDS011;27783;42.782;23.274;2023-02-12T15:57:49;65.93;;;41.17;;
42118;SDS011;27783;42.782;23.274;2023-02-12T16:00:24;73.68;;;48.67;;
42118;SDS011;27783;42.782;23.274;2023-02-12T16:02:51;83.20;;;53.03;;
42118;SDS011;27783;42.782;23.274;2023-02-12T16:05:17;87.43;;;55.00;;
42118;SDS011;27783;42.782;23.274;2023-02-12T16:07:43;117.10;;;75.07;;
42118;SDS011;27783;42.782;23.274;2023-02-12T16:10:13;83.38;;;56.08;;
42118;SDS011;27783;42.782;23.274;2023-02-12T16:12:42;86.30;;;57.35;;
42118;SDS011;27783;42.782;23.274;2023-02-12T16:15:26;74.60;;;49.88;;
42118;SDS011;27783;42.782;23.274;2023-02-12T16:17:56;69.57;;;47.65;;
42118;SDS011;27783;42.782;23.274;2023-02-12T16:22:55;69.93;;;47.78;;
42118;SDS011;27783;42.782;23.274;2023-02-12T16:25:22;65.57;;;44.25;;
42118;SDS011;27783;42.782;23.274;2023-02-12T16:28:01;75.10;;;49.22;;
42118;SDS011;27783;42.782;23.274;2023-02-12T16:30:32;72.00;;;50.03;;
42118;SDS011;27783;42.782;23.274;2023-02-12T16:33:04;75.20;;;50.30;;
42118;SDS011;27783;42.782;23.274;2023-02-12T16:36:10;78.22;;;53.47;;
42118;SDS011;27783;42.782;23.274;2023-02-12T16:38:49;83.20;;;55.15;;
42118;SDS011;27783;42.782;23.274;2023-02-12T16:41:29;71.38;;;47.85;;
42118;SDS011;27783;42.782;23.274;2023-02-12T16:46:29;71.05;;;49.00;;
42118;SDS011;27783;42.782;23.274;2023-02-12T16:48:57;78.85;;;54.40;;
42118;SDS011;27783;42.782;23.274;2023-02-12T16:51:28;77.45;;;52.22;;
42118;SDS011;27783;42.782;23.274;2023-02-12T16:53:56;101.68;;;64.68;;
42118;SDS011;27783;42.782;23.274;2023-02-12T16:56:30;85.63;;;56.83;;
42118;SDS011;27783;42.782;23.274;2023-02-12T16:59:01;66.15;;;41.28;;
42118;SDS011;27783;42.782;23.274;2023-02-12T17:03:54;67.40;;;45.20;;
42118;SDS011;27783;42.782;23.274;2023-02-12T17:06:27;70.72;;;47.15;;
42118;SDS011;27783;42.782;23.274;2023-02-12T17:08:54;80.10;;;53.40;;
42118;SDS011;27783;42.782;23.274;2023-02-12T17:11:20;73.25;;;44.38;;
42118;SDS011;27783;42.782;23.274;2023-02-12T17:13:48;79.28;;;46.00;;
42118;SDS011;27783;42.782;23.274;2023-02-12T17:16:15;82.75;;;48.97;;
42118;SDS011;27783;42.782;23.274;2023-02-12T17:18:42;93.03;;;58.27;;
42118;SDS011;27783;42.782;23.274;2023-02-12T17:23:45;90.40;;;55.78;;
42118;SDS011;27783;42.782;23.274;2023-02-12T17:26:12;90.45;;;55.35;;
42118;SDS011;27783;42.782;23.274;2023-02-12T17:28:37;88.78;;;55.95;;
42118;SDS011;27783;42.782;23.274;2023-02-12T17:31:08;96.78;;;63.45;;
42118;SDS011;27783;42.782;23.274;2023-02-12T17:33:35;93.88;;;58.88;;
42118;SDS011;27783;42.782;23.274;2023-02-12T17:36:02;97.95;;;62.55;;
42118;SDS011;27783;42.782;23.274;2023-02-12T17:38:30;95.85;;;62.60;;
42118;SDS011;27783;42.782;23.274;2023-02-12T17:40:56;105.10;;;62.58;;
42118;SDS011;27783;42.782;23.274;2023-02-12T17:43:22;100.03;;;64.53;;
42118;SDS011;27783;42.782;23.274;2023-02-12T17:45:48;108.55;;;67.78;;
42118;SDS011;27783;42.782;23.274;2023-02-12T17:48:16;93.82;;;61.13;;
42118;SDS011;27783;42.782;23.274;2023-02-12T17:50:43;96.88;;;64.63;;
42118;SDS011;27783;42.782;23.274;2023-02-12T17:53:25;66.88;;;47.03;;
42118;SDS011;27783;42.782;23.274;2023-02-12T17:55:51;69.05;;;44.53;;
42118;SDS011;27783;42.782;23.274;2023-02-12T17:58:16;80.45;;;54.20;;
42118;SDS011;27783;42.782;23.274;2023-02-12T18:00:43;86.18;;;55.65;;
42118;SDS011;27783;42.782;23.274;2023-02-12T18:03:08;92.72;;;61.00;;
42118;SDS011;27783;42.782;23.274;2023-02-12T18:05:40;91.78;;;59.42;;
42118;SDS011;27783;42.782;23.274;2023-02-12T18:08:09;80.82;;;55.17;;
42118;SDS011;27783;42.782;23.274;2023-02-12T18:13:09;83.00;;;55.03;;
42118;SDS011;27783;42.782;23.274;2023-02-12T18:18:24;82.10;;;52.25;;
42118;SDS011;27783;42.782;23.274;2023-02-12T18:20:53;73.63;;;49.63;;
42118;SDS011;27783;42.782;23.274;2023-02-12T18:23:25;88.95;;;57.55;;
42118;SDS011;27783;42.782;23.274;2023-02-12T18:25:53;87.72;;;56.50;;
42118;SDS011;27783;42.782;23.274;2023-02-12T18:28:19;87.90;;;52.60;;
42118;SDS011;27783;42.782;23.274;2023-02-12T18:30:54;85.75;;;54.80;;
42118;SDS011;27783;42.782;23.274;2023-02-12T18:33:23;95.10;;;58.83;;
42118;SDS011;27783;42.782;23.274;2023-02-12T18:36:00;95.75;;;62.42;;